sensor_id;sensor_type;location;lat;lon;timestamp;pressure;altitude;pressure_sealevel;temperature;humidity
66945;BME280;53853;51.982;5.928;2022-12-15T00:02:06;100538.13;;;-1.71;67.35
66945;BME280;53853;51.982;5.928;2022-12-15T00:04:48;100539.88;;;-1.72;67.23
66945;BME280;53853;51.982;5.928;2022-12-15T00:07:30;100539.19;;;-1.75;68.02
66945;BME280;53853;51.982;5.928;2022-12-15T00:10:16;100543.50;;;-1.74;67.95
66945;BME280;53853;51.982;5.928;2022-12-15T00:12:59;100540.72;;;-1.71;67.49
66945;BME280;53853;51.982;5.928;2022-12-15T00:15:41;100536.34;;;-1.71;67.34
66945;BME280;53853;51.982;5.928;2022-12-15T00:18:23;100541.78;;;-1.75;67.23
66945;BME280;53853;51.982;5.928;2022-12-15T00:21:06;100544.47;;;-1.77;67.35
66945;BME280;53853;51.982;5.928;2022-12-15T00:23:48;100548.88;;;-1.77;67.50
66945;BME280;53853;51.982;5.928;2022-12-15T00:26:33;100546.25;;;-1.77;66.92
66945;BME280;53853;51.982;5.928;2022-12-15T00:29:15;100556.94;;;-1.82;67.31
66945;BME280;53853;51.982;5.928;2022-12-15T00:31:58;100546.56;;;-1.84;67.69
66945;BME280;53853;51.982;5.928;2022-12-15T00:34:40;100553.53;;;-1.84;67.25
66945;BME280;53853;51.982;5.928;2022-12-15T00:37:22;100559.72;;;-1.85;67.60
66945;BME280;53853;51.982;5.928;2022-12-15T00:40:06;100551.19;;;-1.89;68.01
66945;BME280;53853;51.982;5.928;2022-12-15T00:42:38;100545.78;;;-1.86;67.92
66945;BME280;53853;51.982;5.928;2022-12-15T00:45:09;100545.78;;;-1.86;68.26
66945;BME280;53853;51.982;5.928;2022-12-15T00:47:39;100550.84;;;-1.83;67.94
66945;BME280;53853;51.982;5.928;2022-12-15T00:50:07;100557.94;;;-1.85;68.01
66945;BME280;53853;51.982;5.928;2022-12-15T00:52:49;100556.22;;;-1.86;68.25
66945;BME280;53853;51.982;5.928;2022-12-15T00:55:32;100549.19;;;-1.84;68.17
66945;BME280;53853;51.982;5.928;2022-12-15T00:58:17;100552.69;;;-1.85;68.27
66945;BME280;53853;51.982;5.928;2022-12-15T01:01:05;100550.94;;;-1.84;68.34
66945;BME280;53853;51.982;5.928;2022-12-15T01:03:47;100545.03;;;-1.88;68.29
66945;BME280;53853;51.982;5.928;2022-12-15T01:06:30;100555.47;;;-1.88;68.31
66945;BME280;53853;51.982;5.928;2022-12-15T01:09:12;100561.78;;;-1.92;68.00
66945;BME280;53853;51.982;5.928;2022-12-15T01:11:55;100565.47;;;-1.96;68.45
66945;BME280;53853;51.982;5.928;2022-12-15T01:14:40;100574.19;;;-1.97;68.40
66945;BME280;53853;51.982;5.928;2022-12-15T01:17:22;100568.16;;;-1.97;68.77
66945;BME280;53853;51.982;5.928;2022-12-15T01:20:06;100570.69;;;-1.96;68.92
66945;BME280;53853;51.982;5.928;2022-12-15T01:22:45;100569.63;;;-1.92;68.78
66945;BME280;53853;51.982;5.928;2022-12-15T01:25:16;100578.06;;;-1.87;68.81
66945;BME280;53853;51.982;5.928;2022-12-15T01:27:47;100573.59;;;-1.85;68.36
66945;BME280;53853;51.982;5.928;2022-12-15T01:30:22;100574.22;;;-1.79;68.06
66945;BME280;53853;51.982;5.928;2022-12-15T01:32:53;100579.59;;;-1.83;67.96
66945;BME280;53853;51.982;5.928;2022-12-15T01:35:23;100583.91;;;-1.82;67.68
66945;BME280;53853;51.982;5.928;2022-12-15T01:37:53;100578.59;;;-1.80;67.52
66945;BME280;53853;51.982;5.928;2022-12-15T01:40:23;100587.50;;;-1.84;67.98
66945;BME280;53853;51.982;5.928;2022-12-15T01:43:10;100584.81;;;-1.83;67.94
66945;BME280;53853;51.982;5.928;2022-12-15T01:46:01;100588.13;;;-1.79;67.46
66945;BME280;53853;51.982;5.928;2022-12-15T01:48:40;100584.81;;;-1.83;67.39
66945;BME280;53853;51.982;5.928;2022-12-15T01:51:14;100591.88;;;-1.85;67.74
66945;BME280;53853;51.982;5.928;2022-12-15T01:53:49;100597.78;;;-1.81;67.64
66945;BME280;53853;51.982;5.928;2022-12-15T01:56:23;100596.19;;;-1.84;67.52
66945;BME280;53853;51.982;5.928;2022-12-15T01:58:56;100603.09;;;-1.83;67.75
66945;BME280;53853;51.982;5.928;2022-12-15T02:01:32;100603.09;;;-1.83;67.49
66945;BME280;53853;51.982;5.928;2022-12-15T02:04:02;100609.25;;;-1.84;67.69
66945;BME280;53853;51.982;5.928;2022-12-15T02:06:32;100615.38;;;-1.85;67.67
66945;BME280;53853;51.982;5.928;2022-12-15T02:09:04;100617.31;;;-1.88;67.94
66945;BME280;53853;51.982;5.928;2022-12-15T02:11:51;100604.41;;;-1.91;67.93
66945;BME280;53853;51.982;5.928;2022-12-15T02:14:44;100601.78;;;-1.91;67.86
66945;BME280;53853;51.982;5.928;2022-12-15T02:17:26;100606.41;;;-1.96;67.83
66945;BME280;53853;51.982;5.928;2022-12-15T02:20:32;100598.66;;;-1.98;67.75
66945;BME280;53853;51.982;5.928;2022-12-15T02:23:24;100609.84;;;-1.96;67.53
66945;BME280;53853;51.982;5.928;2022-12-15T02:26:16;100602.16;;;-1.99;67.87
66945;BME280;53853;51.982;5.928;2022-12-15T02:28:56;100602.16;;;-1.99;67.90
66945;BME280;53853;51.982;5.928;2022-12-15T02:31:37;100607.47;;;-2.01;67.89
66945;BME280;53853;51.982;5.928;2022-12-15T02:34:24;100608.38;;;-2.02;68.22
66945;BME280;53853;51.982;5.928;2022-12-15T02:36:58;100622.31;;;-2.01;68.29
66945;BME280;53853;51.982;5.928;2022-12-15T02:39:30;100621.34;;;-2.00;68.05
66945;BME280;53853;51.982;5.928;2022-12-15T02:42:00;100622.16;;;-1.98;68.00
66945;BME280;53853;51.982;5.928;2022-12-15T02:44:32;100612.63;;;-1.99;67.80
66945;BME280;53853;51.982;5.928;2022-12-15T02:47:26;100616.00;;;-1.97;67.65
66945;BME280;53853;51.982;5.928;2022-12-15T02:50:11;100609.25;;;-2.01;67.86
66945;BME280;53853;51.982;5.928;2022-12-15T02:52:59;100614.53;;;-2.03;67.73
66945;BME280;53853;51.982;5.928;2022-12-15T02:55:38;100615.31;;;-2.01;67.55
66945;BME280;53853;51.982;5.928;2022-12-15T02:58:22;100612.75;;;-2.02;67.80
66945;BME280;53853;51.982;5.928;2022-12-15T03:01:01;100617.06;;;-2.01;67.81
66945;BME280;53853;51.982;5.928;2022-12-15T03:03:36;100609.25;;;-2.01;67.50
66945;BME280;53853;51.982;5.928;2022-12-15T03:06:06;100612.00;;;-2.04;67.66
66945;BME280;53853;51.982;5.928;2022-12-15T03:08:37;100611.22;;;-2.06;67.38
66945;BME280;53853;51.982;5.928;2022-12-15T03:11:07;100614.75;;;-2.07;67.08
66945;BME280;53853;51.982;5.928;2022-12-15T03:13:37;100618.34;;;-2.10;67.55
66945;BME280;53853;51.982;5.928;2022-12-15T03:16:07;100620.97;;;-2.10;67.70
66945;BME280;53853;51.982;5.928;2022-12-15T03:18:40;100635.66;;;-2.07;67.33
66945;BME280;53853;51.982;5.928;2022-12-15T03:21:10;100633.25;;;-2.12;67.59
66945;BME280;53853;51.982;5.928;2022-12-15T03:23:40;100631.56;;;-2.13;67.50
66945;BME280;53853;51.982;5.928;2022-12-15T03:26:10;100637.63;;;-2.12;67.69
66945;BME280;53853;51.982;5.928;2022-12-15T03:28:40;100639.47;;;-2.14;67.32
66945;BME280;53853;51.982;5.928;2022-12-15T03:31:10;100634.25;;;-2.14;67.38
66945;BME280;53853;51.982;5.928;2022-12-15T03:33:43;100631.69;;;-2.16;67.25
66945;BME280;53853;51.982;5.928;2022-12-15T03:36:13;100629.00;;;-2.14;67.29
66945;BME280;53853;51.982;5.928;2022-12-15T03:38:42;100630.88;;;-2.16;67.56
66945;BME280;53853;51.982;5.928;2022-12-15T03:41:13;100636.91;;;-2.16;67.45
66945;BME280;53853;51.982;5.928;2022-12-15T03:43:45;100641.31;;;-2.16;67.52
66945;BME280;53853;51.982;5.928;2022-12-15T03:46:16;100638.75;;;-2.18;67.96
66945;BME280;53853;51.982;5.928;2022-12-15T03:48:48;100637.84;;;-2.17;67.86
66945;BME280;53853;51.982;5.928;2022-12-15T03:51:18;100639.47;;;-2.14;67.73
66945;BME280;53853;51.982;5.928;2022-12-15T03:53:48;100644.06;;;-2.20;67.73
66945;BME280;53853;51.982;5.928;2022-12-15T03:56:19;100639.59;;;-2.17;67.76
66945;BME280;53853;51.982;5.928;2022-12-15T03:58:49;100648.22;;;-2.15;67.81
66945;BME280;53853;51.982;5.928;2022-12-15T04:01:26;100651.59;;;-2.13;67.56
66945;BME280;53853;51.982;5.928;2022-12-15T04:04:00;100656.81;;;-2.13;67.71
66945;BME280;53853;51.982;5.928;2022-12-15T04:06:30;100654.97;;;-2.11;67.41
66945;BME280;53853;51.982;5.928;2022-12-15T04:09:00;100654.06;;;-2.10;67.09
66945;BME280;53853;51.982;5.928;2022-12-15T04:11:30;100648.16;;;-2.14;67.18
66945;BME280;53853;51.982;5.928;2022-12-15T04:14:00;100649.00;;;-2.13;67.03
66945;BME280;53853;51.982;5.928;2022-12-15T04:16:30;100647.28;;;-2.14;66.85
66945;BME280;53853;51.982;5.928;2022-12-15T04:19:02;100653.59;;;-2.19;66.87
66945;BME280;53853;51.982;5.928;2022-12-15T04:21:44;100651.88;;;-2.20;67.02
66945;BME280;53853;51.982;5.928;2022-12-15T04:24:14;100648.44;;;-2.20;66.95
66945;BME280;53853;51.982;5.928;2022-12-15T04:26:57;100656.28;;;-2.20;66.76
66945;BME280;53853;51.982;5.928;2022-12-15T04:29:39;100656.34;;;-2.22;67.16
66945;BME280;53853;51.982;5.928;2022-12-15T04:32:21;100662.47;;;-2.23;67.48
66945;BME280;53853;51.982;5.928;2022-12-15T04:35:07;100657.19;;;-2.21;67.10
66945;BME280;53853;51.982;5.928;2022-12-15T04:37:49;100661.56;;;-2.22;66.69
66945;BME280;53853;51.982;5.928;2022-12-15T04:40:32;100657.47;;;-2.27;67.25
66945;BME280;53853;51.982;5.928;2022-12-15T04:43:14;100660.16;;;-2.29;67.06
66945;BME280;53853;51.982;5.928;2022-12-15T04:45:56;100657.69;;;-2.32;67.57
66945;BME280;53853;51.982;5.928;2022-12-15T04:48:39;100648.94;;;-2.31;67.17
66945;BME280;53853;51.982;5.928;2022-12-15T04:51:23;100657.53;;;-2.29;66.68
66945;BME280;53853;51.982;5.928;2022-12-15T04:54:06;100664.75;;;-2.34;67.22
66945;BME280;53853;51.982;5.928;2022-12-15T04:56:48;100659.66;;;-2.37;67.34
66945;BME280;53853;51.982;5.928;2022-12-15T04:59:30;100664.88;;;-2.37;67.58
66945;BME280;53853;51.982;5.928;2022-12-15T05:02:13;100665.59;;;-2.33;67.55
66945;BME280;53853;51.982;5.928;2022-12-15T05:04:55;100667.22;;;-2.31;67.29
66945;BME280;53853;51.982;5.928;2022-12-15T05:07:40;100662.97;;;-2.33;67.25
66945;BME280;53853;51.982;5.928;2022-12-15T05:10:22;100667.50;;;-2.37;67.10
66945;BME280;53853;51.982;5.928;2022-12-15T05:13:05;100661.66;;;-2.42;67.24
66945;BME280;53853;51.982;5.928;2022-12-15T05:15:48;100672.22;;;-2.45;67.63
66945;BME280;53853;51.982;5.928;2022-12-15T05:18:30;100676.63;;;-2.46;67.53
66945;BME280;53853;51.982;5.928;2022-12-15T05:21:12;100680.81;;;-2.43;67.58
66945;BME280;53853;51.982;5.928;2022-12-15T05:23:57;100678.28;;;-2.45;67.54
66945;BME280;53853;51.982;5.928;2022-12-15T05:26:40;100673.22;;;-2.48;67.43
66945;BME280;53853;51.982;5.928;2022-12-15T05:29:22;100673.28;;;-2.49;67.79
66945;BME280;53853;51.982;5.928;2022-12-15T05:32:05;100676.75;;;-2.49;68.03
66945;BME280;53853;51.982;5.928;2022-12-15T05:34:35;100677.44;;;-2.45;67.71
66945;BME280;53853;51.982;5.928;2022-12-15T05:37:06;100684.34;;;-2.44;67.42
66945;BME280;53853;51.982;5.928;2022-12-15T05:39:38;100682.81;;;-2.48;67.60
66945;BME280;53853;51.982;5.928;2022-12-15T05:42:08;100690.56;;;-2.47;67.75
66945;BME280;53853;51.982;5.928;2022-12-15T05:44:38;100687.97;;;-2.47;67.39
66945;BME280;53853;51.982;5.928;2022-12-15T05:47:09;100690.56;;;-2.47;67.43
66945;BME280;53853;51.982;5.928;2022-12-15T05:49:39;100698.53;;;-2.50;67.61
66945;BME280;53853;51.982;5.928;2022-12-15T05:52:09;100688.09;;;-2.50;67.13
66945;BME280;53853;51.982;5.928;2022-12-15T05:54:42;100690.63;;;-2.48;67.37
66945;BME280;53853;51.982;5.928;2022-12-15T05:57:12;100698.47;;;-2.48;66.95
66945;BME280;53853;51.982;5.928;2022-12-15T05:59:42;100700.31;;;-2.50;67.13
66945;BME280;53853;51.982;5.928;2022-12-15T06:02:11;100709.88;;;-2.51;67.17
66945;BME280;53853;51.982;5.928;2022-12-15T06:04:41;100709.09;;;-2.53;67.41
66945;BME280;53853;51.982;5.928;2022-12-15T06:07:11;100715.38;;;-2.57;68.01
66945;BME280;53853;51.982;5.928;2022-12-15T06:09:44;100720.44;;;-2.54;67.65
66945;BME280;53853;51.982;5.928;2022-12-15T06:12:13;100717.00;;;-2.55;68.12
66945;BME280;53853;51.982;5.928;2022-12-15T06:14:43;100717.91;;;-2.56;67.90
66945;BME280;53853;51.982;5.928;2022-12-15T06:17:13;100702.25;;;-2.56;67.74
66945;BME280;53853;51.982;5.928;2022-12-15T06:19:43;100709.31;;;-2.58;67.96
66945;BME280;53853;51.982;5.928;2022-12-15T06:22:13;100711.16;;;-2.60;68.07
66945;BME280;53853;51.982;5.928;2022-12-15T06:24:46;100717.19;;;-2.59;68.25
66945;BME280;53853;51.982;5.928;2022-12-15T06:27:15;100725.09;;;-2.61;68.42
66945;BME280;53853;51.982;5.928;2022-12-15T06:29:45;100713.75;;;-2.60;68.60
66945;BME280;53853;51.982;5.928;2022-12-15T06:32:15;100726.81;;;-2.60;68.73
66945;BME280;53853;51.982;5.928;2022-12-15T06:34:47;100728.41;;;-2.57;68.50
66945;BME280;53853;51.982;5.928;2022-12-15T06:37:17;100724.81;;;-2.55;68.26
66945;BME280;53853;51.982;5.928;2022-12-15T06:39:50;100728.34;;;-2.56;68.44
66945;BME280;53853;51.982;5.928;2022-12-15T06:42:20;100728.41;;;-2.57;68.58
66945;BME280;53853;51.982;5.928;2022-12-15T06:44:50;100732.78;;;-2.58;68.09
66945;BME280;53853;51.982;5.928;2022-12-15T06:47:20;100724.19;;;-2.60;68.37
66945;BME280;53853;51.982;5.928;2022-12-15T06:49:50;100730.31;;;-2.61;68.55
66945;BME280;53853;51.982;5.928;2022-12-15T06:52:20;100738.91;;;-2.59;68.49
66945;BME280;53853;51.982;5.928;2022-12-15T06:54:52;100736.38;;;-2.60;68.07
66945;BME280;53853;51.982;5.928;2022-12-15T06:57:22;100740.69;;;-2.59;68.34
66945;BME280;53853;51.982;5.928;2022-12-15T06:59:52;100747.66;;;-2.60;68.12
66945;BME280;53853;51.982;5.928;2022-12-15T07:02:22;100744.94;;;-2.57;68.13
66945;BME280;53853;51.982;5.928;2022-12-15T07:04:52;100737.09;;;-2.57;68.05
66945;BME280;53853;51.982;5.928;2022-12-15T07:07:22;100738.84;;;-2.57;68.34
66945;BME280;53853;51.982;5.928;2022-12-15T07:09:54;100738.91;;;-2.59;68.42
66945;BME280;53853;51.982;5.928;2022-12-15T07:12:24;100749.34;;;-2.59;68.81
66945;BME280;53853;51.982;5.928;2022-12-15T07:14:54;100750.22;;;-2.58;68.81
66945;BME280;53853;51.982;5.928;2022-12-15T07:17:24;100749.28;;;-2.57;68.47
66945;BME280;53853;51.982;5.928;2022-12-15T07:19:54;100747.53;;;-2.57;68.41
66945;BME280;53853;51.982;5.928;2022-12-15T07:22:24;100749.34;;;-2.59;68.46
66945;BME280;53853;51.982;5.928;2022-12-15T07:24:57;100743.34;;;-2.61;68.81
66945;BME280;53853;51.982;5.928;2022-12-15T07:27:27;100751.06;;;-2.58;68.54
66945;BME280;53853;51.982;5.928;2022-12-15T07:29:57;100751.94;;;-2.59;68.89
66945;BME280;53853;51.982;5.928;2022-12-15T07:32:26;100757.25;;;-2.60;68.87
66945;BME280;53853;51.982;5.928;2022-12-15T07:34:57;100771.09;;;-2.58;68.59
66945;BME280;53853;51.982;5.928;2022-12-15T07:37:29;100767.97;;;-2.66;68.48
66945;BME280;53853;51.982;5.928;2022-12-15T07:40:02;100759.34;;;-2.68;68.52
66945;BME280;53853;51.982;5.928;2022-12-15T07:42:32;100770.91;;;-2.74;68.69
66945;BME280;53853;51.982;5.928;2022-12-15T07:45:03;100778.00;;;-2.78;69.09
66945;BME280;53853;51.982;5.928;2022-12-15T07:47:33;100773.66;;;-2.77;69.39
66945;BME280;53853;51.982;5.928;2022-12-15T07:50:04;100781.34;;;-2.74;69.58
66945;BME280;53853;51.982;5.928;2022-12-15T07:52:35;100779.38;;;-2.69;69.51
66945;BME280;53853;51.982;5.928;2022-12-15T07:55:08;100780.09;;;-2.65;68.92
66945;BME280;53853;51.982;5.928;2022-12-15T07:57:38;100782.88;;;-2.70;69.24
66945;BME280;53853;51.982;5.928;2022-12-15T08:00:09;100778.59;;;-2.71;69.47
66945;BME280;53853;51.982;5.928;2022-12-15T08:02:40;100783.63;;;-2.66;69.94
66945;BME280;53853;51.982;5.928;2022-12-15T08:05:10;100786.88;;;-2.61;69.74
66945;BME280;53853;51.982;5.928;2022-12-15T08:07:40;100793.75;;;-2.60;69.34
66945;BME280;53853;51.982;5.928;2022-12-15T08:10:13;100790.50;;;-2.65;68.73
66945;BME280;53853;51.982;5.928;2022-12-15T08:12:43;100796.78;;;-2.69;68.97
66945;BME280;53853;51.982;5.928;2022-12-15T08:15:13;100795.88;;;-2.68;69.53
66945;BME280;53853;51.982;5.928;2022-12-15T08:17:43;100801.81;;;-2.65;69.57
66945;BME280;53853;51.982;5.928;2022-12-15T08:20:14;100805.19;;;-2.63;69.19
66945;BME280;53853;51.982;5.928;2022-12-15T08:22:44;100806.97;;;-2.63;69.11
66945;BME280;53853;51.982;5.928;2022-12-15T08:25:17;100803.44;;;-2.62;69.56
66945;BME280;53853;51.982;5.928;2022-12-15T08:27:49;100807.63;;;-2.58;69.65
66945;BME280;53853;51.982;5.928;2022-12-15T08:30:19;100809.97;;;-2.52;69.87
66945;BME280;53853;51.982;5.928;2022-12-15T08:32:49;100810.41;;;-2.42;69.56
66945;BME280;53853;51.982;5.928;2022-12-15T08:35:20;100808.34;;;-2.35;69.70
66945;BME280;53853;51.982;5.928;2022-12-15T08:37:50;100803.84;;;-2.32;69.19
66945;BME280;53853;51.982;5.928;2022-12-15T08:40:22;100814.94;;;-2.27;69.42
66945;BME280;53853;51.982;5.928;2022-12-15T08:42:53;100812.97;;;-2.22;69.31
66945;BME280;53853;51.982;5.928;2022-12-15T08:45:23;100812.44;;;-2.09;69.44
66945;BME280;53853;51.982;5.928;2022-12-15T08:47:55;100812.78;;;-1.98;69.32
66945;BME280;53853;51.982;5.928;2022-12-15T08:50:25;100810.81;;;-1.93;69.15
66945;BME280;53853;51.982;5.928;2022-12-15T08:52:55;100819.13;;;-1.85;69.06
66945;BME280;53853;51.982;5.928;2022-12-15T08:55:27;100819.63;;;-1.76;68.82
66945;BME280;53853;51.982;5.928;2022-12-15T08:57:57;100816.84;;;-1.73;68.99
66945;BME280;53853;51.982;5.928;2022-12-15T09:00:27;100821.81;;;-1.67;68.78
66945;BME280;53853;51.982;5.928;2022-12-15T09:02:58;100819.75;;;-1.60;68.88
66945;BME280;53853;51.982;5.928;2022-12-15T09:05:28;100819.25;;;-1.50;68.33
66945;BME280;53853;51.982;5.928;2022-12-15T09:07:58;100818.81;;;-1.40;68.25
66945;BME280;53853;51.982;5.928;2022-12-15T09:10:31;100816.25;;;-1.42;67.63
66945;BME280;53853;51.982;5.928;2022-12-15T09:13:01;100822.19;;;-1.38;67.73
66945;BME280;53853;51.982;5.928;2022-12-15T09:15:31;100830.75;;;-1.35;67.73
66945;BME280;53853;51.982;5.928;2022-12-15T09:18:01;100836.53;;;-1.28;67.54
66945;BME280;53853;51.982;5.928;2022-12-15T09:20:31;100832.75;;;-1.22;67.71
66945;BME280;53853;51.982;5.928;2022-12-15T09:23:01;100838.47;;;-1.14;67.58
66945;BME280;53853;51.982;5.928;2022-12-15T09:25:34;100833.84;;;-1.09;67.52
66945;BME280;53853;51.982;5.928;2022-12-15T09:28:04;100841.56;;;-1.06;67.10
66945;BME280;53853;51.982;5.928;2022-12-15T09:30:34;100845.63;;;-1.00;67.42
66945;BME280;53853;51.982;5.928;2022-12-15T09:33:03;100841.03;;;-0.95;67.24
66945;BME280;53853;51.982;5.928;2022-12-15T09:35:33;100837.41;;;-0.93;67.08
66945;BME280;53853;51.982;5.928;2022-12-15T09:38:03;100847.63;;;-0.88;66.59
66945;BME280;53853;51.982;5.928;2022-12-15T09:40:36;100847.63;;;-0.88;66.70
66945;BME280;53853;51.982;5.928;2022-12-15T09:43:07;100845.03;;;-0.88;66.50
66945;BME280;53853;51.982;5.928;2022-12-15T09:45:41;100852.66;;;-0.83;66.91
66945;BME280;53853;51.982;5.928;2022-12-15T09:48:17;100855.78;;;-0.77;66.94
66945;BME280;53853;51.982;5.928;2022-12-15T09:50:51;100862.59;;;-0.73;66.82
66945;BME280;53853;51.982;5.928;2022-12-15T09:53:24;100867.50;;;-0.66;66.83
66945;BME280;53853;51.982;5.928;2022-12-15T09:56:04;100859.28;;;-0.59;66.95
66945;BME280;53853;51.982;5.928;2022-12-15T09:58:42;100858.94;;;-0.52;67.03
66945;BME280;53853;51.982;5.928;2022-12-15T10:01:19;100864.75;;;-0.46;66.89
66945;BME280;53853;51.982;5.928;2022-12-15T10:03:57;100866.09;;;-0.39;66.79
66945;BME280;53853;51.982;5.928;2022-12-15T10:06:34;100858.16;;;-0.37;66.61
66945;BME280;53853;51.982;5.928;2022-12-15T10:09:15;100865.94;;;-0.35;66.77
66945;BME280;53853;51.982;5.928;2022-12-15T10:11:53;100852.53;;;-0.29;66.70
66945;BME280;53853;51.982;5.928;2022-12-15T10:14:29;100852.22;;;-0.23;66.69
66945;BME280;53853;51.982;5.928;2022-12-15T10:17:05;100852.75;;;-0.16;66.58
66945;BME280;53853;51.982;5.928;2022-12-15T10:19:48;100850.56;;;-0.08;66.37
66945;BME280;53853;51.982;5.928;2022-12-15T10:22:22;100853.88;;;-0.05;66.50
66945;BME280;53853;51.982;5.928;2022-12-15T10:24:53;100845.94;;;-0.03;66.56
66945;BME280;53853;51.982;5.928;2022-12-15T10:27:35;100846.38;;;0.05;66.13
66945;BME280;53853;51.982;5.928;2022-12-15T10:30:13;100843.75;;;0.05;66.38
66945;BME280;53853;51.982;5.928;2022-12-15T10:32:48;100852.28;;;0.09;66.34
66945;BME280;53853;51.982;5.928;2022-12-15T10:35:21;100851.81;;;0.18;66.50
66945;BME280;53853;51.982;5.928;2022-12-15T10:37:54;100852.13;;;0.28;66.48
66945;BME280;53853;51.982;5.928;2022-12-15T10:40:43;100865.75;;;0.34;66.53
66945;BME280;53853;51.982;5.928;2022-12-15T10:43:25;100856.63;;;0.42;66.38
66945;BME280;53853;51.982;5.928;2022-12-15T10:46:11;100861.47;;;0.49;66.46
66945;BME280;53853;51.982;5.928;2022-12-15T10:48:46;100870.66;;;0.57;66.36
66945;BME280;53853;51.982;5.928;2022-12-15T10:51:22;100868.53;;;0.63;66.37
66945;BME280;53853;51.982;5.928;2022-12-15T10:54:03;100860.59;;;0.65;66.50
66945;BME280;53853;51.982;5.928;2022-12-15T10:56:46;100849.84;;;0.69;66.56
66945;BME280;53853;51.982;5.928;2022-12-15T10:59:29;100859.81;;;0.79;66.53
66945;BME280;53853;51.982;5.928;2022-12-15T11:05:15;100853.50;;;0.83;66.89
66945;BME280;53853;51.982;5.928;2022-12-15T11:07:47;100854.91;;;0.88;67.03
66945;BME280;53853;51.982;5.928;2022-12-15T11:10:20;100858.00;;;0.95;66.85
66945;BME280;53853;51.982;5.928;2022-12-15T11:12:59;100855.22;;;0.98;67.13
66945;BME280;53853;51.982;5.928;2022-12-15T11:15:39;100859.38;;;1.02;66.95
66945;BME280;53853;51.982;5.928;2022-12-15T11:21:11;100860.44;;;1.14;67.08
66945;BME280;53853;51.982;5.928;2022-12-15T11:23:57;100861.50;;;1.26;67.12
66945;BME280;53853;51.982;5.928;2022-12-15T11:26:36;100862.09;;;1.31;67.07
66945;BME280;53853;51.982;5.928;2022-12-15T11:29:20;100863.53;;;1.37;66.97
66945;BME280;53853;51.982;5.928;2022-12-15T11:31:56;100861.56;;;1.40;66.86
66945;BME280;53853;51.982;5.928;2022-12-15T11:34:36;100857.44;;;1.51;66.83
66945;BME280;53853;51.982;5.928;2022-12-15T11:40:24;100852.78;;;1.56;66.80
66945;BME280;53853;51.982;5.928;2022-12-15T11:46:05;100854.00;;;1.65;66.94
66945;BME280;53853;51.982;5.928;2022-12-15T11:48:45;100852.97;;;1.67;66.97
66945;BME280;53853;51.982;5.928;2022-12-15T11:51:22;100850.91;;;1.72;67.04
66945;BME280;53853;51.982;5.928;2022-12-15T11:54:06;100851.47;;;1.77;66.84
66945;BME280;53853;51.982;5.928;2022-12-15T11:56:44;100854.59;;;1.84;66.84
66945;BME280;53853;51.982;5.928;2022-12-15T12:02:42;100850.25;;;1.97;66.75
66945;BME280;53853;51.982;5.928;2022-12-15T12:05:34;100856.94;;;2.03;66.69
66945;BME280;53853;51.982;5.928;2022-12-15T12:08:23;100859.25;;;2.08;66.60
66945;BME280;53853;51.982;5.928;2022-12-15T12:11:04;100855.59;;;2.10;66.48
66945;BME280;53853;51.982;5.928;2022-12-15T12:13:55;100851.84;;;2.14;66.66
66945;BME280;53853;51.982;5.928;2022-12-15T12:16:34;100846.78;;;2.26;66.45
66945;BME280;53853;51.982;5.928;2022-12-15T12:19:08;100840.38;;;2.30;66.30
66945;BME280;53853;51.982;5.928;2022-12-15T12:21:44;100834.91;;;2.33;66.19
66945;BME280;53853;51.982;5.928;2022-12-15T12:24:20;100838.50;;;2.32;66.24
66945;BME280;53853;51.982;5.928;2022-12-15T12:26:55;100836.72;;;2.32;66.12
66945;BME280;53853;51.982;5.928;2022-12-15T12:29:31;100834.91;;;2.33;66.03
66945;BME280;53853;51.982;5.928;2022-12-15T12:32:05;100830.63;;;2.32;66.04
66945;BME280;53853;51.982;5.928;2022-12-15T12:34:50;100829.66;;;2.33;65.94
66945;BME280;53853;51.982;5.928;2022-12-15T12:37:30;100827.97;;;2.32;66.22
66945;BME280;53853;51.982;5.928;2022-12-15T12:40:06;100824.50;;;2.31;66.19
66945;BME280;53853;51.982;5.928;2022-12-15T12:42:46;100827.78;;;2.35;66.19
66945;BME280;53853;51.982;5.928;2022-12-15T12:45:19;100832.84;;;2.38;66.28
66945;BME280;53853;51.982;5.928;2022-12-15T12:47:54;100830.59;;;2.46;66.25
66945;BME280;53853;51.982;5.928;2022-12-15T12:50:27;100819.66;;;2.52;66.11
66945;BME280;53853;51.982;5.928;2022-12-15T12:53:01;100819.66;;;2.52;66.15
66945;BME280;53853;51.982;5.928;2022-12-15T12:55:37;100822.09;;;2.56;65.85
66945;BME280;53853;51.982;5.928;2022-12-15T12:58:29;100808.19;;;2.53;65.81
66945;BME280;53853;51.982;5.928;2022-12-15T13:01:05;100813.06;;;2.60;65.68
66945;BME280;53853;51.982;5.928;2022-12-15T13:03:46;100808.47;;;2.63;65.61
66945;BME280;53853;51.982;5.928;2022-12-15T13:06:56;100804.38;;;2.72;65.41
66945;BME280;53853;51.982;5.928;2022-12-15T13:09:39;100806.22;;;2.84;65.15
66945;BME280;53853;51.982;5.928;2022-12-15T13:12:32;100799.38;;;2.95;64.98
66945;BME280;53853;51.982;5.928;2022-12-15T13:15:07;100802.69;;;2.98;64.88
66945;BME280;53853;51.982;5.928;2022-12-15T13:17:42;100793.72;;;3.01;64.91
66945;BME280;53853;51.982;5.928;2022-12-15T13:20:19;100797.94;;;3.03;64.84
66945;BME280;53853;51.982;5.928;2022-12-15T13:22:50;100799.41;;;3.07;64.52
66945;BME280;53853;51.982;5.928;2022-12-15T13:25:44;100799.19;;;3.11;63.74
66945;BME280;53853;51.982;5.928;2022-12-15T13:28:30;100800.38;;;3.06;63.91
66945;BME280;53853;51.982;5.928;2022-12-15T13:31:28;100794.34;;;3.04;63.86
66945;BME280;53853;51.982;5.928;2022-12-15T13:34:10;100795.50;;;3.00;63.98
66945;BME280;53853;51.982;5.928;2022-12-15T13:36:59;100786.00;;;2.98;64.08
66945;BME280;53853;51.982;5.928;2022-12-15T13:39:55;100773.91;;;2.95;64.22
66945;BME280;53853;51.982;5.928;2022-12-15T13:42:31;100772.94;;;2.96;64.40
66945;BME280;53853;51.982;5.928;2022-12-15T13:48:26;100765.56;;;2.88;64.57
66945;BME280;53853;51.982;5.928;2022-12-15T13:53:48;100775.47;;;2.85;64.69
66945;BME280;53853;51.982;5.928;2022-12-15T13:59:28;100770.41;;;2.82;64.56
66945;BME280;53853;51.982;5.928;2022-12-15T14:01:59;100765.22;;;2.80;64.78
66945;BME280;53853;51.982;5.928;2022-12-15T14:04:29;100760.69;;;2.82;64.85